sensor_id;sensor_type;location;lat;lon;timestamp;temperature;humidity
3866;DHT22;1948;53.250;10.412;2022-11-23T00:01:34;3.10;99.90
3866;DHT22;1948;53.250;10.412;2022-11-23T00:04:06;3.10;99.90
3866;DHT22;1948;53.250;10.412;2022-11-23T00:06:35;3.10;99.90
3866;DHT22;1948;53.250;10.412;2022-11-23T00:09:04;3.20;99.90
3866;DHT22;1948;53.250;10.412;2022-11-23T00:11:33;3.10;99.90
3866;DHT22;1948;53.250;10.412;2022-11-23T00:14:01;3.10;99.90
3866;DHT22;1948;53.250;10.412;2022-11-23T00:16:29;3.10;99.90
3866;DHT22;1948;53.250;10.412;2022-11-23T00:18:58;3.00;99.90
3866;DHT22;1948;53.250;10.412;2022-11-23T00:21:31;3.00;99.90
3866;DHT22;1948;53.250;10.412;2022-11-23T00:23:58;3.00;99.90
3866;DHT22;1948;53.250;10.412;2022-11-23T00:26:26;3.10;99.90
3866;DHT22;1948;53.250;10.412;2022-11-23T00:28:53;3.00;99.90
3866;DHT22;1948;53.250;10.412;2022-11-23T00:31:20;3.00;99.90
3866;DHT22;1948;53.250;10.412;2022-11-23T00:33:52;3.00;99.90
3866;DHT22;1948;53.250;10.412;2022-11-23T00:36:21;3.00;99.90
3866;DHT22;1948;53.250;10.412;2022-11-23T00:38:50;3.10;99.90
3866;DHT22;1948;53.250;10.412;2022-11-23T00:41:22;3.10;99.90
3866;DHT22;1948;53.250;10.412;2022-11-23T00:43:50;3.10;99.90
3866;DHT22;1948;53.250;10.412;2022-11-23T00:46:20;3.20;99.90
3866;DHT22;1948;53.250;10.412;2022-11-23T00:48:50;3.20;99.90
3866;DHT22;1948;53.250;10.412;2022-11-23T00:51:26;3.20;99.90
3866;DHT22;1948;53.250;10.412;2022-11-23T00:53:55;3.20;99.90
3866;DHT22;1948;53.250;10.412;2022-11-23T00:56:22;3.30;99.90
3866;DHT22;1948;53.250;10.412;2022-11-23T00:58:50;3.30;99.90
3866;DHT22;1948;53.250;10.412;2022-11-23T01:01:22;3.40;99.90
3866;DHT22;1948;53.250;10.412;2022-11-23T01:03:56;3.40;99.90
3866;DHT22;1948;53.250;10.412;2022-11-23T01:06:26;3.30;99.90
3866;DHT22;1948;53.250;10.412;2022-11-23T01:09:00;3.30;99.90
3866;DHT22;1948;53.250;10.412;2022-11-23T01:11:32;3.30;99.90
3866;DHT22;1948;53.250;10.412;2022-11-23T01:14:01;3.40;99.90
3866;DHT22;1948;53.250;10.412;2022-11-23T01:16:36;3.40;99.90
3866;DHT22;1948;53.250;10.412;2022-11-23T01:19:13;3.40;99.90
3866;DHT22;1948;53.250;10.412;2022-11-23T01:21:42;3.50;99.90
3866;DHT22;1948;53.250;10.412;2022-11-23T01:24:21;3.40;99.90
3866;DHT22;1948;53.250;10.412;2022-11-23T01:26:53;3.40;99.90
3866;DHT22;1948;53.250;10.412;2022-11-23T01:29:21;3.40;99.90
3866;DHT22;1948;53.250;10.412;2022-11-23T01:31:51;3.40;99.90
3866;DHT22;1948;53.250;10.412;2022-11-23T01:34:21;3.50;99.90
3866;DHT22;1948;53.250;10.412;2022-11-23T01:36:48;3.50;99.90
3866;DHT22;1948;53.250;10.412;2022-11-23T01:39:17;3.50;99.90
3866;DHT22;1948;53.250;10.412;2022-11-23T01:41:46;3.60;99.90
3866;DHT22;1948;53.250;10.412;2022-11-23T01:44:33;3.50;99.90
3866;DHT22;1948;53.250;10.412;2022-11-23T01:47:07;3.50;99.90
3866;DHT22;1948;53.250;10.412;2022-11-23T01:52:10;3.60;99.90
3866;DHT22;1948;53.250;10.412;2022-11-23T01:54:44;3.60;99.90
3866;DHT22;1948;53.250;10.412;2022-11-23T01:57:20;3.60;99.90
3866;DHT22;1948;53.250;10.412;2022-11-23T01:59:52;3.50;99.90
3866;DHT22;1948;53.250;10.412;2022-11-23T02:02:24;3.60;99.90
3866;DHT22;1948;53.250;10.412;2022-11-23T02:04:55;3.60;99.90
3866;DHT22;1948;53.250;10.412;2022-11-23T02:07:26;3.60;99.90
3866;DHT22;1948;53.250;10.412;2022-11-23T02:09:56;3.60;99.90
3866;DHT22;1948;53.250;10.412;2022-11-23T02:12:28;3.60;99.90
3866;DHT22;1948;53.250;10.412;2022-11-23T02:14:56;3.60;99.90
3866;DHT22;1948;53.250;10.412;2022-11-23T02:17:25;3.70;99.90
3866;DHT22;1948;53.250;10.412;2022-11-23T02:20:07;3.70;99.90
3866;DHT22;1948;53.250;10.412;2022-11-23T02:28:18;3.80;99.90
3866;DHT22;1948;53.250;10.412;2022-11-23T02:30:53;3.70;99.90
3866;DHT22;1948;53.250;10.412;2022-11-23T02:33:20;3.80;99.90
3866;DHT22;1948;53.250;10.412;2022-11-23T02:35:49;3.80;99.90
3866;DHT22;1948;53.250;10.412;2022-11-23T02:38:18;3.80;99.90
3866;DHT22;1948;53.250;10.412;2022-11-23T02:40:46;3.80;99.90
3866;DHT22;1948;53.250;10.412;2022-11-23T02:43:13;3.90;99.90
3866;DHT22;1948;53.250;10.412;2022-11-23T02:45:57;3.80;99.90
3866;DHT22;1948;53.250;10.412;2022-11-23T02:48:25;3.80;99.90
3866;DHT22;1948;53.250;10.412;2022-11-23T02:50:55;3.90;99.90
3866;DHT22;1948;53.250;10.412;2022-11-23T02:53:22;3.80;99.90
3866;DHT22;1948;53.250;10.412;2022-11-23T02:55:49;3.80;99.90
3866;DHT22;1948;53.250;10.412;2022-11-23T02:58:16;3.90;99.90
3866;DHT22;1948;53.250;10.412;2022-11-23T03:00:42;3.80;99.90
3866;DHT22;1948;53.250;10.412;2022-11-23T03:03:10;3.80;99.90
3866;DHT22;1948;53.250;10.412;2022-11-23T03:05:37;3.90;99.90
3866;DHT22;1948;53.250;10.412;2022-11-23T03:08:04;3.90;99.90
3866;DHT22;1948;53.250;10.412;2022-11-23T03:10:31;4.00;99.90
3866;DHT22;1948;53.250;10.412;2022-11-23T03:12:58;3.90;99.90
3866;DHT22;1948;53.250;10.412;2022-11-23T03:15:25;3.90;99.90
3866;DHT22;1948;53.250;10.412;2022-11-23T03:17:52;3.90;99.90
3866;DHT22;1948;53.250;10.412;2022-11-23T03:20:22;3.80;99.90
3866;DHT22;1948;53.250;10.412;2022-11-23T03:22:52;3.80;99.90
3866;DHT22;1948;53.250;10.412;2022-11-23T03:25:22;3.80;99.90
3866;DHT22;1948;53.250;10.412;2022-11-23T03:27:48;3.80;99.90
3866;DHT22;1948;53.250;10.412;2022-11-23T03:30:18;3.70;99.90
3866;DHT22;1948;53.250;10.412;2022-11-23T03:32:48;3.80;99.90
3866;DHT22;1948;53.250;10.412;2022-11-23T03:35:19;3.80;99.90
3866;DHT22;1948;53.250;10.412;2022-11-23T03:37:46;3.80;99.90
3866;DHT22;1948;53.250;10.412;2022-11-23T03:40:15;3.80;99.90
3866;DHT22;1948;53.250;10.412;2022-11-23T03:42:42;3.80;99.90
3866;DHT22;1948;53.250;10.412;2022-11-23T03:45:09;3.80;99.90
3866;DHT22;1948;53.250;10.412;2022-11-23T03:47:39;3.80;99.90
3866;DHT22;1948;53.250;10.412;2022-11-23T03:50:11;3.80;99.90
3866;DHT22;1948;53.250;10.412;2022-11-23T03:52:40;3.80;99.90
3866;DHT22;1948;53.250;10.412;2022-11-23T03:55:07;3.80;99.90
3866;DHT22;1948;53.250;10.412;2022-11-23T03:57:37;3.80;99.90
3866;DHT22;1948;53.250;10.412;2022-11-23T04:00:07;3.80;99.90
3866;DHT22;1948;53.250;10.412;2022-11-23T04:02:37;3.90;99.90
3866;DHT22;1948;53.250;10.412;2022-11-23T04:05:04;3.90;99.90
3866;DHT22;1948;53.250;10.412;2022-11-23T04:07:31;3.90;99.90
3866;DHT22;1948;53.250;10.412;2022-11-23T04:10:03;3.90;99.90
3866;DHT22;1948;53.250;10.412;2022-11-23T04:12:33;3.90;99.90
3866;DHT22;1948;53.250;10.412;2022-11-23T04:15:00;4.00;99.90
3866;DHT22;1948;53.250;10.412;2022-11-23T04:17:29;4.00;99.90
3866;DHT22;1948;53.250;10.412;2022-11-23T04:19:56;4.00;99.90
3866;DHT22;1948;53.250;10.412;2022-11-23T04:22:23;3.90;99.90
3866;DHT22;1948;53.250;10.412;2022-11-23T04:24:50;4.00;99.90
3866;DHT22;1948;53.250;10.412;2022-11-23T04:27:16;4.00;99.90
3866;DHT22;1948;53.250;10.412;2022-11-23T04:29:43;4.00;99.90
3866;DHT22;1948;53.250;10.412;2022-11-23T04:32:10;4.00;99.90
3866;DHT22;1948;53.250;10.412;2022-11-23T04:34:37;4.00;99.90
3866;DHT22;1948;53.250;10.412;2022-11-23T04:37:04;4.00;99.90
3866;DHT22;1948;53.250;10.412;2022-11-23T04:39:38;4.10;99.90
3866;DHT22;1948;53.250;10.412;2022-11-23T04:42:05;4.10;99.90
3866;DHT22;1948;53.250;10.412;2022-11-23T04:44:32;4.10;99.90
3866;DHT22;1948;53.250;10.412;2022-11-23T04:47:02;4.10;99.90
3866;DHT22;1948;53.250;10.412;2022-11-23T04:49:29;4.10;99.90
3866;DHT22;1948;53.250;10.412;2022-11-23T04:51:56;4.20;99.90
3866;DHT22;1948;53.250;10.412;2022-11-23T04:54:23;4.20;99.90
3866;DHT22;1948;53.250;10.412;2022-11-23T04:56:50;4.20;99.90
3866;DHT22;1948;53.250;10.412;2022-11-23T04:59:19;4.20;99.90
3866;DHT22;1948;53.250;10.412;2022-11-23T05:01:48;4.20;99.90
3866;DHT22;1948;53.250;10.412;2022-11-23T05:04:20;4.20;99.90
3866;DHT22;1948;53.250;10.412;2022-11-23T05:06:47;4.30;99.90
3866;DHT22;1948;53.250;10.412;2022-11-23T05:09:14;4.20;99.90
3866;DHT22;1948;53.250;10.412;2022-11-23T05:11:41;4.30;99.90
3866;DHT22;1948;53.250;10.412;2022-11-23T05:14:08;4.30;99.90
3866;DHT22;1948;53.250;10.412;2022-11-23T05:16:35;4.30;99.90
3866;DHT22;1948;53.250;10.412;2022-11-23T05:19:05;4.30;99.90
3866;DHT22;1948;53.250;10.412;2022-11-23T05:21:35;4.30;99.90
3866;DHT22;1948;53.250;10.412;2022-11-23T05:24:02;4.30;99.90
3866;DHT22;1948;53.250;10.412;2022-11-23T05:26:29;4.30;99.90
3866;DHT22;1948;53.250;10.412;2022-11-23T05:28:59;4.30;99.90
3866;DHT22;1948;53.250;10.412;2022-11-23T05:31:31;4.40;99.90
3866;DHT22;1948;53.250;10.412;2022-11-23T05:34:00;4.40;99.90
3866;DHT22;1948;53.250;10.412;2022-11-23T05:36:27;4.40;99.90
3866;DHT22;1948;53.250;10.412;2022-11-23T05:38:54;4.40;99.90
3866;DHT22;1948;53.250;10.412;2022-11-23T05:41:21;4.40;99.90
3866;DHT22;1948;53.250;10.412;2022-11-23T05:43:51;4.40;99.90
3866;DHT22;1948;53.250;10.412;2022-11-23T05:46:18;4.40;99.90
3866;DHT22;1948;53.250;10.412;2022-11-23T05:48:48;4.40;99.90
3866;DHT22;1948;53.250;10.412;2022-11-23T05:51:17;4.40;99.90
3866;DHT22;1948;53.250;10.412;2022-11-23T05:53:44;4.40;99.90
3866;DHT22;1948;53.250;10.412;2022-11-23T05:56:11;4.40;99.90
3866;DHT22;1948;53.250;10.412;2022-11-23T05:58:38;4.40;99.90
3866;DHT22;1948;53.250;10.412;2022-11-23T06:01:05;4.40;99.90
3866;DHT22;1948;53.250;10.412;2022-11-23T06:03:32;4.40;99.90
3866;DHT22;1948;53.250;10.412;2022-11-23T06:05:59;4.50;99.90
3866;DHT22;1948;53.250;10.412;2022-11-23T06:08:26;4.40;99.90
3866;DHT22;1948;53.250;10.412;2022-11-23T06:10:55;4.50;99.90
3866;DHT22;1948;53.250;10.412;2022-11-23T06:13:24;4.50;99.90
3866;DHT22;1948;53.250;10.412;2022-11-23T06:15:51;4.50;99.90
3866;DHT22;1948;53.250;10.412;2022-11-23T06:18:20;4.50;99.90
3866;DHT22;1948;53.250;10.412;2022-11-23T06:20:49;4.60;99.90
3866;DHT22;1948;53.250;10.412;2022-11-23T06:23:16;4.60;99.90
3866;DHT22;1948;53.250;10.412;2022-11-23T06:25:46;4.60;99.90
3866;DHT22;1948;53.250;10.412;2022-11-23T06:28:13;4.60;99.90
3866;DHT22;1948;53.250;10.412;2022-11-23T06:30:43;4.60;99.90
3866;DHT22;1948;53.250;10.412;2022-11-23T06:33:10;4.60;99.90
3866;DHT22;1948;53.250;10.412;2022-11-23T06:35:36;4.60;99.90
3866;DHT22;1948;53.250;10.412;2022-11-23T06:38:03;4.60;99.90
3866;DHT22;1948;53.250;10.412;2022-11-23T06:40:32;4.70;99.90
3866;DHT22;1948;53.250;10.412;2022-11-23T06:42:59;4.70;99.90
3866;DHT22;1948;53.250;10.412;2022-11-23T06:45:28;4.70;99.90
3866;DHT22;1948;53.250;10.412;2022-11-23T06:47:55;4.70;99.90
3866;DHT22;1948;53.250;10.412;2022-11-23T06:50:27;4.70;99.90
3866;DHT22;1948;53.250;10.412;2022-11-23T06:52:55;4.70;99.90
3866;DHT22;1948;53.250;10.412;2022-11-23T06:55:23;4.70;99.90
3866;DHT22;1948;53.250;10.412;2022-11-23T06:57:54;4.70;99.90
3866;DHT22;1948;53.250;10.412;2022-11-23T07:00:25;4.70;99.90
3866;DHT22;1948;53.250;10.412;2022-11-23T07:02:55;4.80;99.90
3866;DHT22;1948;53.250;10.412;2022-11-23T07:05:23;4.80;99.90
3866;DHT22;1948;53.250;10.412;2022-11-23T07:07:50;4.80;99.90
3866;DHT22;1948;53.250;10.412;2022-11-23T07:10:19;4.90;99.90
3866;DHT22;1948;53.250;10.412;2022-11-23T07:12:46;4.90;99.90
3866;DHT22;1948;53.250;10.412;2022-11-23T07:15:15;5.00;99.90
3866;DHT22;1948;53.250;10.412;2022-11-23T07:17:42;4.90;99.90
3866;DHT22;1948;53.250;10.412;2022-11-23T07:20:11;5.00;99.90
3866;DHT22;1948;53.250;10.412;2022-11-23T07:22:39;4.90;99.90
3866;DHT22;1948;53.250;10.412;2022-11-23T07:25:08;4.90;99.90
3866;DHT22;1948;53.250;10.412;2022-11-23T07:27:36;5.00;99.90
3866;DHT22;1948;53.250;10.412;2022-11-23T07:30:04;4.90;99.90
3866;DHT22;1948;53.250;10.412;2022-11-23T07:32:33;4.90;99.90
3866;DHT22;1948;53.250;10.412;2022-11-23T07:35:03;4.90;99.90
3866;DHT22;1948;53.250;10.412;2022-11-23T07:37:32;4.90;99.90
3866;DHT22;1948;53.250;10.412;2022-11-23T07:40:02;4.90;99.90
3866;DHT22;1948;53.250;10.412;2022-11-23T07:42:31;4.90;99.90
3866;DHT22;1948;53.250;10.412;2022-11-23T07:45:08;5.00;99.90
3866;DHT22;1948;53.250;10.412;2022-11-23T07:47:36;5.10;99.90
3866;DHT22;1948;53.250;10.412;2022-11-23T07:50:07;5.00;99.90
3866;DHT22;1948;53.250;10.412;2022-11-23T07:52:36;5.00;99.90
3866;DHT22;1948;53.250;10.412;2022-11-23T07:55:06;5.10;99.90
3866;DHT22;1948;53.250;10.412;2022-11-23T07:57:33;5.10;99.90
3866;DHT22;1948;53.250;10.412;2022-11-23T08:00:00;5.10;99.90
3866;DHT22;1948;53.250;10.412;2022-11-23T08:02:27;5.20;99.90
3866;DHT22;1948;53.250;10.412;2022-11-23T08:04:56;5.10;99.90
3866;DHT22;1948;53.250;10.412;2022-11-23T08:07:25;5.20;99.90
3866;DHT22;1948;53.250;10.412;2022-11-23T08:09:52;5.20;99.90
3866;DHT22;1948;53.250;10.412;2022-11-23T08:12:19;5.20;99.90
3866;DHT22;1948;53.250;10.412;2022-11-23T08:14:46;5.20;99.90
3866;DHT22;1948;53.250;10.412;2022-11-23T08:17:13;5.30;99.90
3866;DHT22;1948;53.250;10.412;2022-11-23T08:19:45;5.30;99.90
3866;DHT22;1948;53.250;10.412;2022-11-23T08:22:11;5.40;99.90
3866;DHT22;1948;53.250;10.412;2022-11-23T08:24:41;5.40;99.90
3866;DHT22;1948;53.250;10.412;2022-11-23T08:27:08;5.40;99.90
3866;DHT22;1948;53.250;10.412;2022-11-23T08:29:38;5.50;99.90
3866;DHT22;1948;53.250;10.412;2022-11-23T08:32:05;5.50;99.90
3866;DHT22;1948;53.250;10.412;2022-11-23T08:34:34;5.50;99.90
3866;DHT22;1948;53.250;10.412;2022-11-23T08:37:01;5.50;99.90
3866;DHT22;1948;53.250;10.412;2022-11-23T08:39:28;5.50;99.90
3866;DHT22;1948;53.250;10.412;2022-11-23T08:41:55;5.60;99.90
3866;DHT22;1948;53.250;10.412;2022-11-23T08:44:21;5.70;99.90
3866;DHT22;1948;53.250;10.412;2022-11-23T08:46:48;5.80;99.90
3866;DHT22;1948;53.250;10.412;2022-11-23T08:49:18;5.80;99.90
3866;DHT22;1948;53.250;10.412;2022-11-23T08:51:45;5.90;99.90
3866;DHT22;1948;53.250;10.412;2022-11-23T08:54:16;5.90;99.90
3866;DHT22;1948;53.250;10.412;2022-11-23T08:56:47;6.00;99.90
3866;DHT22;1948;53.250;10.412;2022-11-23T08:59:14;6.10;99.90
3866;DHT22;1948;53.250;10.412;2022-11-23T09:01:44;6.40;99.90
3866;DHT22;1948;53.250;10.412;2022-11-23T09:04:11;6.80;99.90
3866;DHT22;1948;53.250;10.412;2022-11-23T09:06:46;7.50;99.90
3866;DHT22;1948;53.250;10.412;2022-11-23T09:09:13;8.90;99.90
3866;DHT22;1948;53.250;10.412;2022-11-23T09:11:40;10.30;99.90
3866;DHT22;1948;53.250;10.412;2022-11-23T09:14:06;10.60;99.90
3866;DHT22;1948;53.250;10.412;2022-11-23T09:16:35;10.20;99.90
3866;DHT22;1948;53.250;10.412;2022-11-23T09:19:05;10.30;99.90
3866;DHT22;1948;53.250;10.412;2022-11-23T09:21:33;11.80;99.90
3866;DHT22;1948;53.250;10.412;2022-11-23T09:24:01;13.90;99.90
3866;DHT22;1948;53.250;10.412;2022-11-23T09:26:28;15.60;99.90
3866;DHT22;1948;53.250;10.412;2022-11-23T09:28:59;15.50;99.90
3866;DHT22;1948;53.250;10.412;2022-11-23T09:31:26;16.20;99.90
3866;DHT22;1948;53.250;10.412;2022-11-23T09:33:55;16.30;99.90
3866;DHT22;1948;53.250;10.412;2022-11-23T09:36:27;16.80;99.90
3866;DHT22;1948;53.250;10.412;2022-11-23T09:38:54;15.70;99.90
3866;DHT22;1948;53.250;10.412;2022-11-23T09:45:03;12.70;99.90
3866;DHT22;1948;53.250;10.412;2022-11-23T09:50:39;10.90;99.90
3866;DHT22;1948;53.250;10.412;2022-11-23T09:53:18;10.40;99.90
3866;DHT22;1948;53.250;10.412;2022-11-23T09:56:19;10.40;99.90
3866;DHT22;1948;53.250;10.412;2022-11-23T09:58:53;13.10;99.90
3866;DHT22;1948;53.250;10.412;2022-11-23T10:01:23;15.40;99.90
3866;DHT22;1948;53.250;10.412;2022-11-23T10:03:53;17.80;99.90
3866;DHT22;1948;53.250;10.412;2022-11-23T10:06:28;19.20;99.90
3866;DHT22;1948;53.250;10.412;2022-11-23T10:25:55;17.20;99.90
3866;DHT22;1948;53.250;10.412;2022-11-23T10:28:23;16.40;99.90
3866;DHT22;1948;53.250;10.412;2022-11-23T10:30:56;15.20;99.90
3866;DHT22;1948;53.250;10.412;2022-11-23T10:33:37;14.10;99.90
3866;DHT22;1948;53.250;10.412;2022-11-23T10:36:10;13.00;99.90
3866;DHT22;1948;53.250;10.412;2022-11-23T10:38:41;12.20;99.90
3866;DHT22;1948;53.250;10.412;2022-11-23T10:41:10;11.90;99.90
3866;DHT22;1948;53.250;10.412;2022-11-23T10:49:19;11.00;99.90
3866;DHT22;1948;53.250;10.412;2022-11-23T10:51:58;10.60;99.90
3866;DHT22;1948;53.250;10.412;2022-11-23T10:57:40;10.20;99.90
3866;DHT22;1948;53.250;10.412;2022-11-23T11:02:43;9.70;99.90
3866;DHT22;1948;53.250;10.412;2022-11-23T11:08:20;9.40;99.90
3866;DHT22;1948;53.250;10.412;2022-11-23T11:13:30;9.50;99.90
3866;DHT22;1948;53.250;10.412;2022-11-23T11:16:04;9.50;99.90
3866;DHT22;1948;53.250;10.412;2022-11-23T11:18:38;9.60;99.90
3866;DHT22;1948;53.250;10.412;2022-11-23T11:21:21;9.70;99.90
3866;DHT22;1948;53.250;10.412;2022-11-23T11:24:12;10.00;99.90
3866;DHT22;1948;53.250;10.412;2022-11-23T11:27:24;10.20;99.90
3866;DHT22;1948;53.250;10.412;2022-11-23T11:29:50;10.70;99.90
3866;DHT22;1948;53.250;10.412;2022-11-23T11:32:44;10.60;99.90
3866;DHT22;1948;53.250;10.412;2022-11-23T11:35:26;10.60;99.90
3866;DHT22;1948;53.250;10.412;2022-11-23T11:38:03;10.50;99.90
3866;DHT22;1948;53.250;10.412;2022-11-23T11:40:50;10.50;99.90
3866;DHT22;1948;53.250;10.412;2022-11-23T11:43:47;10.40;99.90
3866;DHT22;1948;53.250;10.412;2022-11-23T11:46:20;10.30;99.90
3866;DHT22;1948;53.250;10.412;2022-11-23T11:49:11;10.30;99.90
3866;DHT22;1948;53.250;10.412;2022-11-23T11:51:44;10.00;99.90
3866;DHT22;1948;53.250;10.412;2022-11-23T11:57:20;10.20;99.90
3866;DHT22;1948;53.250;10.412;2022-11-23T11:59:49;11.40;99.90
3866;DHT22;1948;53.250;10.412;2022-11-23T12:12:44;16.30;99.90
3866;DHT22;1948;53.250;10.412;2022-11-23T12:15:25;16.40;99.90
3866;DHT22;1948;53.250;10.412;2022-11-23T12:27:08;22.20;99.90
3866;DHT22;1948;53.250;10.412;2022-11-23T12:58:39;17.00;99.90
3866;DHT22;1948;53.250;10.412;2022-11-23T13:13:25;16.20;99.90
3866;DHT22;1948;53.250;10.412;2022-11-23T13:16:19;17.80;99.90
3866;DHT22;1948;53.250;10.412;2022-11-23T13:21:56;19.40;99.90
3866;DHT22;1948;53.250;10.412;2022-11-23T13:24:32;19.90;99.90
3866;DHT22;1948;53.250;10.412;2022-11-23T13:40:28;19.80;99.90
3866;DHT22;1948;53.250;10.412;2022-11-23T13:43:13;19.60;99.90
3866;DHT22;1948;53.250;10.412;2022-11-23T13:45:44;19.50;99.90
3866;DHT22;1948;53.250;10.412;2022-11-23T13:48:16;18.80;99.90
3866;DHT22;1948;53.250;10.412;2022-11-23T13:51:04;18.20;99.90
3866;DHT22;1948;53.250;10.412;2022-11-23T13:53:40;17.40;99.90
3866;DHT22;1948;53.250;10.412;2022-11-23T13:58:51;15.10;99.90
3866;DHT22;1948;53.250;10.412;2022-11-23T14:04:36;13.30;99.90
3866;DHT22;1948;53.250;10.412;2022-11-23T14:10:32;12.50;99.90
3866;DHT22;1948;53.250;10.412;2022-11-23T14:13:16;12.70;99.90
3866;DHT22;1948;53.250;10.412;2022-11-23T14:16:02;13.90;99.90
3866;DHT22;1948;53.250;10.412;2022-11-23T14:21:25;14.20;99.90
3866;DHT22;1948;53.250;10.412;2022-11-23T14:31:03;12.30;99.90
3866;DHT22;1948;53.250;10.412;2022-11-23T14:36:34;11.30;99.90
3866;DHT22;1948;53.250;10.412;2022-11-23T14:42:30;10.80;99.90
3866;DHT22;1948;53.250;10.412;2022-11-23T14:45:02;10.60;99.90
3866;DHT22;1948;53.250;10.412;2022-11-23T14:47:31;10.40;99.90
3866;DHT22;1948;53.250;10.412;2022-11-23T14:49:58;10.10;99.90
3866;DHT22;1948;53.250;10.412;2022-11-23T14:52:30;10.00;99.90
3866;DHT22;1948;53.250;10.412;2022-11-23T14:55:03;9.90;99.90
3866;DHT22;1948;53.250;10.412;2022-11-23T14:57:53;9.70;99.90
3866;DHT22;1948;53.250;10.412;2022-11-23T15:00:39;9.50;99.90
3866;DHT22;1948;53.250;10.412;2022-11-23T15:03:18;9.50;99.90
3866;DHT22;1948;53.250;10.412;2022-11-23T15:06:14;9.40;99.90
3866;DHT22;1948;53.250;10.412;2022-11-23T15:12:05;9.20;99.90
3866;DHT22;1948;53.250;10.412;2022-11-23T15:14:42;9.00;99.90
3866;DHT22;1948;53.250;10.412;2022-11-23T15:17:13;8.90;99.90
3866;DHT22;1948;53.250;10.412;2022-11-23T15:19:57;8.90;99.90
3866;DHT22;1948;53.250;10.412;2022-11-23T15:22:27;8.70;99.90
3866;DHT22;1948;53.250;10.412;2022-11-23T15:25:06;8.70;99.90
3866;DHT22;1948;53.250;10.412;2022-11-23T15:27:39;8.70;99.90
3866;DHT22;1948;53.250;10.412;2022-11-23T15:30:21;8.50;99.90
3866;DHT22;1948;53.250;10.412;2022-11-23T15:32:59;8.40;99.90
3866;DHT22;1948;53.250;10.412;2022-11-23T15:35:34;8.20;99.90
3866;DHT22;1948;53.250;10.412;2022-11-23T15:38:05;8.20;99.90
3866;DHT22;1948;53.250;10.412;2022-11-23T15:40:36;8.10;99.90
3866;DHT22;1948;53.250;10.412;2022-11-23T15:43:03;8.00;99.90
3866;DHT22;1948;53.250;10.412;2022-11-23T15:48:18;7.90;99.90
3866;DHT22;1948;53.250;10.412;2022-11-23T15:50:57;7.80;99.90
3866;DHT22;1948;53.250;10.412;2022-11-23T15:53:51;7.70;99.90
3866;DHT22;1948;53.250;10.412;2022-11-23T15:59:33;7.60;99.90
3866;DHT22;1948;53.250;10.412;2022-11-23T16:02:14;7.50;99.90
3866;DHT22;1948;53.250;10.412;2022-11-23T16:04:44;7.40;99.90
3866;DHT22;1948;53.250;10.412;2022-11-23T16:07:22;7.40;99.90
3866;DHT22;1948;53.250;10.412;2022-11-23T16:09:50;7.40;99.90
3866;DHT22;1948;53.250;10.412;2022-11-23T16:12:33;7.30;99.90
3866;DHT22;1948;53.250;10.412;2022-11-23T16:17:52;7.10;99.90
3866;DHT22;1948;53.250;10.412;2022-11-23T16:20:23;7.10;99.90
3866;DHT22;1948;53.250;10.412;2022-11-23T16:22:52;7.00;99.90
3866;DHT22;1948;53.250;10.412;2022-11-23T16:28:31;6.90;99.90
3866;DHT22;1948;53.250;10.412;2022-11-23T16:31:02;6.90;99.90
3866;DHT22;1948;53.250;10.412;2022-11-23T16:33:30;6.80;99.90
3866;DHT22;1948;53.250;10.412;2022-11-23T16:35:59;6.90;99.90
3866;DHT22;1948;53.250;10.412;2022-11-23T16:38:26;6.90;99.90
3866;DHT22;1948;53.250;10.412;2022-11-23T16:40:53;6.80;99.90
3866;DHT22;1948;53.250;10.412;2022-11-23T16:43:21;6.80;99.90
3866;DHT22;1948;53.250;10.412;2022-11-23T16:45:53;6.80;99.90
3866;DHT22;1948;53.250;10.412;2022-11-23T16:48:34;6.80;99.90
3866;DHT22;1948;53.250;10.412;2022-11-23T16:51:10;6.80;99.90
3866;DHT22;1948;53.250;10.412;2022-11-23T16:53:41;6.70;99.90
3866;DHT22;1948;53.250;10.412;2022-11-23T16:56:29;6.70;99.90
3866;DHT22;1948;53.250;10.412;2022-11-23T16:58:58;6.60;99.90
3866;DHT22;1948;53.250;10.412;2022-11-23T17:01:26;6.60;99.90
3866;DHT22;1948;53.250;10.412;2022-11-23T17:03:55;6.50;99.90
3866;DHT22;1948;53.250;10.412;2022-11-23T17:06:22;6.60;99.90
3866;DHT22;1948;53.250;10.412;2022-11-23T17:08:51;6.50;99.90
3866;DHT22;1948;53.250;10.412;2022-11-23T17:11:26;6.50;99.90
3866;DHT22;1948;53.250;10.412;2022-11-23T17:13:54;6.50;99.90
3866;DHT22;1948;53.250;10.412;2022-11-23T17:16:23;6.40;99.90
3866;DHT22;1948;53.250;10.412;2022-11-23T17:18:51;6.40;99.90
3866;DHT22;1948;53.250;10.412;2022-11-23T17:21:18;6.40;99.90
3866;DHT22;1948;53.250;10.412;2022-11-23T17:23:45;6.30;99.90
3866;DHT22;1948;53.250;10.412;2022-11-23T17:26:40;6.40;99.90
3866;DHT22;1948;53.250;10.412;2022-11-23T17:29:17;6.40;99.90
3866;DHT22;1948;53.250;10.412;2022-11-23T17:31:46;6.30;99.90
3866;DHT22;1948;53.250;10.412;2022-11-23T17:34:16;6.30;99.90
3866;DHT22;1948;53.250;10.412;2022-11-23T17:36:49;6.40;99.90
3866;DHT22;1948;53.250;10.412;2022-11-23T17:39:22;6.30;99.90
3866;DHT22;1948;53.250;10.412;2022-11-23T17:41:52;6.30;99.90
3866;DHT22;1948;53.250;10.412;2022-11-23T17:44:19;6.30;99.90
3866;DHT22;1948;53.250;10.412;2022-11-23T17:46:46;6.20;99.90
3866;DHT22;1948;53.250;10.412;2022-11-23T17:49:16;6.20;99.90
3866;DHT22;1948;53.250;10.412;2022-11-23T17:51:54;6.30;99.90
3866;DHT22;1948;53.250;10.412;2022-11-23T17:54:23;6.20;99.90
3866;DHT22;1948;53.250;10.412;2022-11-23T17:56:50;6.20;99.90
3866;DHT22;1948;53.250;10.412;2022-11-23T17:59:21;6.20;99.90
3866;DHT22;1948;53.250;10.412;2022-11-23T18:01:54;6.20;99.90
3866;DHT22;1948;53.250;10.412;2022-11-23T18:04:21;6.20;99.90
3866;DHT22;1948;53.250;10.412;2022-11-23T18:06:48;6.20;99.90
3866;DHT22;1948;53.250;10.412;2022-11-23T18:09:14;6.20;99.90
3866;DHT22;1948;53.250;10.412;2022-11-23T18:11:41;6.10;99.90
3866;DHT22;1948;53.250;10.412;2022-11-23T18:14:10;6.10;99.90
3866;DHT22;1948;53.250;10.412;2022-11-23T18:16:42;6.10;99.90
3866;DHT22;1948;53.250;10.412;2022-11-23T18:19:09;6.10;99.90
3866;DHT22;1948;53.250;10.412;2022-11-23T18:21:37;6.00;99.90
3866;DHT22;1948;53.250;10.412;2022-11-23T18:24:05;6.00;99.90
3866;DHT22;1948;53.250;10.412;2022-11-23T18:26:34;6.00;99.90
3866;DHT22;1948;53.250;10.412;2022-11-23T18:29:04;6.00;99.90
3866;DHT22;1948;53.250;10.412;2022-11-23T18:31:32;6.00;99.90
3866;DHT22;1948;53.250;10.412;2022-11-23T18:33:59;6.00;99.90
3866;DHT22;1948;53.250;10.412;2022-11-23T18:36:31;6.00;99.90
3866;DHT22;1948;53.250;10.412;2022-11-23T18:38:58;6.00;99.90
3866;DHT22;1948;53.250;10.412;2022-11-23T18:41:27;6.00;99.90
3866;DHT22;1948;53.250;10.412;2022-11-23T18:43:54;6.00;99.90
3866;DHT22;1948;53.250;10.412;2022-11-23T18:46:23;5.90;99.90
3866;DHT22;1948;53.250;10.412;2022-11-23T18:48:52;5.80;99.90
3866;DHT22;1948;53.250;10.412;2022-11-23T18:51:25;5.80;99.90
3866;DHT22;1948;53.250;10.412;2022-11-23T18:53:52;5.70;99.90
3866;DHT22;1948;53.250;10.412;2022-11-23T18:56:21;5.60;99.90
3866;DHT22;1948;53.250;10.412;2022-11-23T18:58:48;5.70;99.90
3866;DHT22;1948;53.250;10.412;2022-11-23T19:01:21;5.60;99.90
3866;DHT22;1948;53.250;10.412;2022-11-23T19:03:51;5.60;99.90
3866;DHT22;1948;53.250;10.412;2022-11-23T19:06:22;5.60;99.90
3866;DHT22;1948;53.250;10.412;2022-11-23T19:08:53;5.50;99.90
3866;DHT22;1948;53.250;10.412;2022-11-23T19:11:26;5.50;99.90
3866;DHT22;1948;53.250;10.412;2022-11-23T19:13:55;5.50;99.90